sensor_id;sensor_type;location;lat;lon;timestamp;P1;durP1;ratioP1;P2;durP2;ratioP2
71622;SDS011;59473;53.214;5.728;2023-10-31T00:00:11;13.57;;;4.37;;
71622;SDS011;59473;53.214;5.728;2023-10-31T00:02:37;14.10;;;4.78;;
71622;SDS011;59473;53.214;5.728;2023-10-31T00:05:02;10.60;;;4.43;;
71622;SDS011;59473;53.214;5.728;2023-10-31T00:07:28;16.33;;;5.40;;
71622;SDS011;59473;53.214;5.728;2023-10-31T00:09:54;13.13;;;4.88;;
71622;SDS011;59473;53.214;5.728;2023-10-31T00:12:19;12.07;;;5.40;;
71622;SDS011;59473;53.214;5.728;2023-10-31T00:14:44;11.43;;;5.00;;
71622;SDS011;59473;53.214;5.728;2023-10-31T00:17:10;20.57;;;7.20;;
71622;SDS011;59473;53.214;5.728;2023-10-31T00:19:35;19.53;;;7.17;;
71622;SDS011;59473;53.214;5.728;2023-10-31T00:22:00;19.60;;;8.40;;
71622;SDS011;59473;53.214;5.728;2023-10-31T00:24:25;21.73;;;8.00;;
71622;SDS011;59473;53.214;5.728;2023-10-31T00:26:51;22.17;;;8.60;;
71622;SDS011;59473;53.214;5.728;2023-10-31T00:29:16;20.10;;;7.60;;
71622;SDS011;59473;53.214;5.728;2023-10-31T00:31:42;24.60;;;7.97;;
71622;SDS011;59473;53.214;5.728;2023-10-31T00:34:07;23.90;;;7.23;;
71622;SDS011;59473;53.214;5.728;2023-10-31T00:36:33;19.47;;;5.60;;
71622;SDS011;59473;53.214;5.728;2023-10-31T00:38:58;17.87;;;5.03;;
71622;SDS011;59473;53.214;5.728;2023-10-31T00:41:23;14.63;;;4.00;;
71622;SDS011;59473;53.214;5.728;2023-10-31T00:43:49;19.00;;;3.50;;
71622;SDS011;59473;53.214;5.728;2023-10-31T00:46:14;15.77;;;4.30;;
71622;SDS011;59473;53.214;5.728;2023-10-31T00:48:39;11.20;;;3.80;;
71622;SDS011;59473;53.214;5.728;2023-10-31T00:51:04;15.40;;;3.60;;
71622;SDS011;59473;53.214;5.728;2023-10-31T00:53:30;17.27;;;3.80;;
71622;SDS011;59473;53.214;5.728;2023-10-31T00:55:55;17.70;;;3.35;;
71622;SDS011;59473;53.214;5.728;2023-10-31T00:58:20;18.87;;;3.60;;
71622;SDS011;59473;53.214;5.728;2023-10-31T01:00:46;15.33;;;3.90;;
71622;SDS011;59473;53.214;5.728;2023-10-31T01:03:11;22.37;;;3.80;;
71622;SDS011;59473;53.214;5.728;2023-10-31T01:05:36;17.03;;;3.40;;
71622;SDS011;59473;53.214;5.728;2023-10-31T01:08:01;13.67;;;3.00;;
71622;SDS011;59473;53.214;5.728;2023-10-31T01:10:27;11.83;;;3.20;;
71622;SDS011;59473;53.214;5.728;2023-10-31T01:12:52;15.37;;;3.50;;
71622;SDS011;59473;53.214;5.728;2023-10-31T01:15:17;12.40;;;2.70;;
71622;SDS011;59473;53.214;5.728;2023-10-31T01:17:42;19.30;;;3.83;;
71622;SDS011;59473;53.214;5.728;2023-10-31T01:20:08;19.30;;;3.27;;
71622;SDS011;59473;53.214;5.728;2023-10-31T01:22:34;20.00;;;3.22;;
71622;SDS011;59473;53.214;5.728;2023-10-31T01:24:59;15.43;;;3.57;;
71622;SDS011;59473;53.214;5.728;2023-10-31T01:27:24;14.17;;;2.97;;
71622;SDS011;59473;53.214;5.728;2023-10-31T01:29:50;18.40;;;3.80;;
71622;SDS011;59473;53.214;5.728;2023-10-31T01:32:15;22.90;;;3.80;;
71622;SDS011;59473;53.214;5.728;2023-10-31T01:34:40;17.60;;;3.43;;
71622;SDS011;59473;53.214;5.728;2023-10-31T01:37:05;18.30;;;3.67;;
71622;SDS011;59473;53.214;5.728;2023-10-31T01:39:31;20.07;;;3.90;;
71622;SDS011;59473;53.214;5.728;2023-10-31T01:41:56;13.87;;;3.60;;
71622;SDS011;59473;53.214;5.728;2023-10-31T01:44:21;15.70;;;3.93;;
71622;SDS011;59473;53.214;5.728;2023-10-31T01:46:46;14.73;;;3.83;;
71622;SDS011;59473;53.214;5.728;2023-10-31T01:49:12;15.03;;;3.90;;
71622;SDS011;59473;53.214;5.728;2023-10-31T01:51:38;15.30;;;3.70;;
71622;SDS011;59473;53.214;5.728;2023-10-31T01:54:03;13.23;;;3.73;;
71622;SDS011;59473;53.214;5.728;2023-10-31T01:56:29;12.10;;;2.90;;
71622;SDS011;59473;53.214;5.728;2023-10-31T01:58:54;14.83;;;3.67;;
71622;SDS011;59473;53.214;5.728;2023-10-31T02:01:19;14.53;;;3.67;;
71622;SDS011;59473;53.214;5.728;2023-10-31T02:03:45;17.42;;;3.13;;
71622;SDS011;59473;53.214;5.728;2023-10-31T02:06:10;21.70;;;3.70;;
71622;SDS011;59473;53.214;5.728;2023-10-31T02:08:35;16.58;;;3.78;;
71622;SDS011;59473;53.214;5.728;2023-10-31T02:11:00;19.35;;;3.85;;
71622;SDS011;59473;53.214;5.728;2023-10-31T02:13:26;19.50;;;3.77;;
71622;SDS011;59473;53.214;5.728;2023-10-31T02:15:51;19.77;;;4.00;;
71622;SDS011;59473;53.214;5.728;2023-10-31T02:18:17;12.50;;;3.50;;
71622;SDS011;59473;53.214;5.728;2023-10-31T02:20:42;19.90;;;4.00;;
71622;SDS011;59473;53.214;5.728;2023-10-31T02:23:07;17.50;;;3.50;;
71622;SDS011;59473;53.214;5.728;2023-10-31T02:25:33;19.38;;;4.05;;
71622;SDS011;59473;53.214;5.728;2023-10-31T02:27:58;17.50;;;3.40;;
71622;SDS011;59473;53.214;5.728;2023-10-31T02:30:23;11.73;;;3.80;;
71622;SDS011;59473;53.214;5.728;2023-10-31T02:32:49;25.37;;;4.03;;
71622;SDS011;59473;53.214;5.728;2023-10-31T02:35:15;15.20;;;3.73;;
71622;SDS011;59473;53.214;5.728;2023-10-31T02:37:41;16.80;;;3.88;;
71622;SDS011;59473;53.214;5.728;2023-10-31T02:40:06;14.33;;;3.47;;
71622;SDS011;59473;53.214;5.728;2023-10-31T02:42:31;17.27;;;3.80;;
71622;SDS011;59473;53.214;5.728;2023-10-31T02:44:57;19.30;;;4.30;;
71622;SDS011;59473;53.214;5.728;2023-10-31T02:47:22;20.80;;;4.90;;
71622;SDS011;59473;53.214;5.728;2023-10-31T02:49:47;19.73;;;4.80;;
71622;SDS011;59473;53.214;5.728;2023-10-31T02:52:12;13.07;;;3.93;;
71622;SDS011;59473;53.214;5.728;2023-10-31T02:54:38;16.40;;;3.77;;
71622;SDS011;59473;53.214;5.728;2023-10-31T02:57:03;18.40;;;3.90;;
71622;SDS011;59473;53.214;5.728;2023-10-31T02:59:28;17.07;;;3.93;;
71622;SDS011;59473;53.214;5.728;2023-10-31T03:01:55;19.03;;;3.10;;
71622;SDS011;59473;53.214;5.728;2023-10-31T03:04:20;15.93;;;3.28;;
71622;SDS011;59473;53.214;5.728;2023-10-31T03:06:46;19.13;;;3.50;;
71622;SDS011;59473;53.214;5.728;2023-10-31T03:09:11;10.13;;;3.13;;
71622;SDS011;59473;53.214;5.728;2023-10-31T03:11:36;8.17;;;2.97;;
71622;SDS011;59473;53.214;5.728;2023-10-31T03:14:01;10.70;;;3.40;;
71622;SDS011;59473;53.214;5.728;2023-10-31T03:16:27;14.77;;;3.70;;
71622;SDS011;59473;53.214;5.728;2023-10-31T03:18:52;10.70;;;2.87;;
71622;SDS011;59473;53.214;5.728;2023-10-31T03:21:17;16.10;;;3.40;;
71622;SDS011;59473;53.214;5.728;2023-10-31T03:23:46;12.25;;;3.00;;
71622;SDS011;59473;53.214;5.728;2023-10-31T03:26:12;14.15;;;3.05;;
71622;SDS011;59473;53.214;5.728;2023-10-31T03:28:37;17.37;;;2.63;;
71622;SDS011;59473;53.214;5.728;2023-10-31T03:31:02;11.93;;;2.60;;
71622;SDS011;59473;53.214;5.728;2023-10-31T03:33:27;11.48;;;2.65;;
71622;SDS011;59473;53.214;5.728;2023-10-31T03:35:53;12.07;;;3.00;;
71622;SDS011;59473;53.214;5.728;2023-10-31T03:38:18;12.38;;;2.55;;
71622;SDS011;59473;53.214;5.728;2023-10-31T03:40:43;9.60;;;2.30;;
71622;SDS011;59473;53.214;5.728;2023-10-31T03:43:08;10.98;;;2.88;;
71622;SDS011;59473;53.214;5.728;2023-10-31T03:45:33;7.28;;;2.10;;
71622;SDS011;59473;53.214;5.728;2023-10-31T03:47:59;6.47;;;1.98;;
71622;SDS011;59473;53.214;5.728;2023-10-31T03:50:24;12.23;;;2.40;;
71622;SDS011;59473;53.214;5.728;2023-10-31T03:52:49;9.77;;;2.60;;
71622;SDS011;59473;53.214;5.728;2023-10-31T03:55:14;14.43;;;2.50;;
71622;SDS011;59473;53.214;5.728;2023-10-31T03:57:40;8.70;;;2.15;;
71622;SDS011;59473;53.214;5.728;2023-10-31T04:00:05;12.40;;;2.30;;
71622;SDS011;59473;53.214;5.728;2023-10-31T04:02:32;14.47;;;2.40;;
71622;SDS011;59473;53.214;5.728;2023-10-31T04:04:57;6.20;;;2.20;;
71622;SDS011;59473;53.214;5.728;2023-10-31T04:07:22;10.55;;;2.63;;
71622;SDS011;59473;53.214;5.728;2023-10-31T04:09:48;5.63;;;2.00;;
71622;SDS011;59473;53.214;5.728;2023-10-31T04:12:13;6.18;;;2.22;;
71622;SDS011;59473;53.214;5.728;2023-10-31T04:14:38;7.95;;;2.95;;
71622;SDS011;59473;53.214;5.728;2023-10-31T04:17:04;8.83;;;2.10;;
71622;SDS011;59473;53.214;5.728;2023-10-31T04:19:29;8.30;;;2.47;;
71622;SDS011;59473;53.214;5.728;2023-10-31T04:21:54;7.87;;;2.43;;
71622;SDS011;59473;53.214;5.728;2023-10-31T04:24:19;10.07;;;2.33;;
71622;SDS011;59473;53.214;5.728;2023-10-31T04:26:45;11.10;;;2.43;;
71622;SDS011;59473;53.214;5.728;2023-10-31T04:29:10;12.00;;;2.50;;
71622;SDS011;59473;53.214;5.728;2023-10-31T04:31:35;8.70;;;2.07;;
71622;SDS011;59473;53.214;5.728;2023-10-31T04:34:00;18.90;;;3.20;;
71622;SDS011;59473;53.214;5.728;2023-10-31T04:36:26;9.13;;;2.00;;
71622;SDS011;59473;53.214;5.728;2023-10-31T04:38:51;11.83;;;2.23;;
71622;SDS011;59473;53.214;5.728;2023-10-31T04:41:16;12.03;;;2.03;;
71622;SDS011;59473;53.214;5.728;2023-10-31T04:43:41;8.40;;;2.00;;
71622;SDS011;59473;53.214;5.728;2023-10-31T04:46:07;7.00;;;2.57;;
71622;SDS011;59473;53.214;5.728;2023-10-31T04:48:32;9.50;;;2.23;;
71622;SDS011;59473;53.214;5.728;2023-10-31T04:50:57;11.77;;;2.63;;
71622;SDS011;59473;53.214;5.728;2023-10-31T04:53:23;6.90;;;2.15;;
71622;SDS011;59473;53.214;5.728;2023-10-31T04:55:48;7.10;;;2.00;;
71622;SDS011;59473;53.214;5.728;2023-10-31T04:58:13;13.77;;;2.17;;
71622;SDS011;59473;53.214;5.728;2023-10-31T05:00:38;7.70;;;2.20;;
71622;SDS011;59473;53.214;5.728;2023-10-31T05:03:04;10.47;;;1.73;;
71622;SDS011;59473;53.214;5.728;2023-10-31T05:05:29;8.53;;;2.00;;
71622;SDS011;59473;53.214;5.728;2023-10-31T05:07:54;7.50;;;1.97;;
71622;SDS011;59473;53.214;5.728;2023-10-31T05:10:19;8.80;;;1.80;;
71622;SDS011;59473;53.214;5.728;2023-10-31T05:12:45;14.27;;;2.23;;
71622;SDS011;59473;53.214;5.728;2023-10-31T05:15:10;8.73;;;2.00;;
71622;SDS011;59473;53.214;5.728;2023-10-31T05:17:36;10.67;;;2.10;;
71622;SDS011;59473;53.214;5.728;2023-10-31T05:20:01;9.33;;;2.20;;
71622;SDS011;59473;53.214;5.728;2023-10-31T05:22:26;10.20;;;2.30;;
71622;SDS011;59473;53.214;5.728;2023-10-31T05:24:51;15.53;;;2.50;;
71622;SDS011;59473;53.214;5.728;2023-10-31T05:27:16;8.53;;;2.23;;
71622;SDS011;59473;53.214;5.728;2023-10-31T05:29:42;13.17;;;2.67;;
71622;SDS011;59473;53.214;5.728;2023-10-31T05:32:07;10.40;;;2.53;;
71622;SDS011;59473;53.214;5.728;2023-10-31T05:34:32;11.37;;;2.80;;
71622;SDS011;59473;53.214;5.728;2023-10-31T05:36:57;11.47;;;2.30;;
71622;SDS011;59473;53.214;5.728;2023-10-31T05:39:23;10.13;;;2.30;;
71622;SDS011;59473;53.214;5.728;2023-10-31T05:41:48;8.83;;;2.30;;
71622;SDS011;59473;53.214;5.728;2023-10-31T05:44:13;8.77;;;2.50;;
71622;SDS011;59473;53.214;5.728;2023-10-31T05:46:38;7.00;;;2.23;;
71622;SDS011;59473;53.214;5.728;2023-10-31T05:49:07;15.43;;;2.30;;
71622;SDS011;59473;53.214;5.728;2023-10-31T05:51:32;15.07;;;2.75;;
71622;SDS011;59473;53.214;5.728;2023-10-31T05:53:58;7.83;;;2.30;;
71622;SDS011;59473;53.214;5.728;2023-10-31T05:56:23;7.87;;;2.63;;
71622;SDS011;59473;53.214;5.728;2023-10-31T05:58:49;8.18;;;2.13;;
71622;SDS011;59473;53.214;5.728;2023-10-31T06:01:14;11.40;;;2.50;;
71622;SDS011;59473;53.214;5.728;2023-10-31T06:03:43;6.27;;;2.17;;
71622;SDS011;59473;53.214;5.728;2023-10-31T06:06:09;8.75;;;2.78;;
71622;SDS011;59473;53.214;5.728;2023-10-31T06:08:34;6.30;;;2.03;;
71622;SDS011;59473;53.214;5.728;2023-10-31T06:10:59;12.60;;;2.80;;
71622;SDS011;59473;53.214;5.728;2023-10-31T06:13:25;9.93;;;2.17;;
71622;SDS011;59473;53.214;5.728;2023-10-31T06:15:54;6.15;;;2.05;;
71622;SDS011;59473;53.214;5.728;2023-10-31T06:18:20;11.40;;;2.67;;
71622;SDS011;59473;53.214;5.728;2023-10-31T06:20:45;7.10;;;2.03;;
71622;SDS011;59473;53.214;5.728;2023-10-31T06:23:10;7.47;;;2.17;;
71622;SDS011;59473;53.214;5.728;2023-10-31T06:25:35;8.67;;;2.17;;
71622;SDS011;59473;53.214;5.728;2023-10-31T06:28:01;8.33;;;2.47;;
71622;SDS011;59473;53.214;5.728;2023-10-31T06:30:26;11.27;;;2.00;;
71622;SDS011;59473;53.214;5.728;2023-10-31T06:32:52;11.03;;;2.30;;
71622;SDS011;59473;53.214;5.728;2023-10-31T06:35:17;7.18;;;2.22;;
71622;SDS011;59473;53.214;5.728;2023-10-31T06:37:42;11.77;;;2.33;;
71622;SDS011;59473;53.214;5.728;2023-10-31T06:40:08;9.37;;;1.80;;
71622;SDS011;59473;53.214;5.728;2023-10-31T06:42:34;5.40;;;1.70;;
71622;SDS011;59473;53.214;5.728;2023-10-31T06:45:00;3.60;;;1.80;;
71622;SDS011;59473;53.214;5.728;2023-10-31T06:47:25;5.57;;;2.00;;
71622;SDS011;59473;53.214;5.728;2023-10-31T06:49:50;7.47;;;2.40;;
71622;SDS011;59473;53.214;5.728;2023-10-31T06:52:15;5.33;;;2.00;;
71622;SDS011;59473;53.214;5.728;2023-10-31T06:54:40;6.40;;;2.10;;
71622;SDS011;59473;53.214;5.728;2023-10-31T06:57:06;6.60;;;1.63;;
71622;SDS011;59473;53.214;5.728;2023-10-31T06:59:31;7.33;;;2.13;;
71622;SDS011;59473;53.214;5.728;2023-10-31T07:01:56;7.87;;;2.00;;
71622;SDS011;59473;53.214;5.728;2023-10-31T07:04:21;6.20;;;1.53;;
71622;SDS011;59473;53.214;5.728;2023-10-31T07:06:47;6.63;;;2.10;;
71622;SDS011;59473;53.214;5.728;2023-10-31T07:09:12;5.60;;;2.20;;
71622;SDS011;59473;53.214;5.728;2023-10-31T07:11:37;6.37;;;1.90;;
71622;SDS011;59473;53.214;5.728;2023-10-31T07:14:02;6.80;;;2.10;;
71622;SDS011;59473;53.214;5.728;2023-10-31T07:16:28;11.13;;;2.20;;
71622;SDS011;59473;53.214;5.728;2023-10-31T07:18:53;7.78;;;1.95;;
71622;SDS011;59473;53.214;5.728;2023-10-31T07:21:18;7.10;;;2.15;;
71622;SDS011;59473;53.214;5.728;2023-10-31T07:23:43;4.97;;;1.90;;
71622;SDS011;59473;53.214;5.728;2023-10-31T07:26:09;7.53;;;2.03;;
71622;SDS011;59473;53.214;5.728;2023-10-31T07:28:35;9.60;;;1.87;;
71622;SDS011;59473;53.214;5.728;2023-10-31T07:31:00;6.63;;;1.50;;
71622;SDS011;59473;53.214;5.728;2023-10-31T07:33:25;6.87;;;1.53;;
71622;SDS011;59473;53.214;5.728;2023-10-31T07:35:51;5.07;;;1.50;;
71622;SDS011;59473;53.214;5.728;2023-10-31T07:38:16;6.10;;;1.47;;
71622;SDS011;59473;53.214;5.728;2023-10-31T07:40:41;8.13;;;1.70;;
71622;SDS011;59473;53.214;5.728;2023-10-31T07:43:06;6.67;;;1.60;;
71622;SDS011;59473;53.214;5.728;2023-10-31T07:45:31;7.90;;;2.20;;
71622;SDS011;59473;53.214;5.728;2023-10-31T07:47:57;5.00;;;1.50;;
71622;SDS011;59473;53.214;5.728;2023-10-31T07:50:22;7.80;;;1.90;;
71622;SDS011;59473;53.214;5.728;2023-10-31T07:52:47;10.60;;;1.70;;
71622;SDS011;59473;53.214;5.728;2023-10-31T07:55:12;6.10;;;1.90;;
71622;SDS011;59473;53.214;5.728;2023-10-31T07:57:38;7.97;;;2.20;;
71622;SDS011;59473;53.214;5.728;2023-10-31T08:00:03;8.47;;;2.40;;
71622;SDS011;59473;53.214;5.728;2023-10-31T08:02:28;13.35;;;1.85;;
71622;SDS011;59473;53.214;5.728;2023-10-31T08:04:54;6.77;;;2.00;;
71622;SDS011;59473;53.214;5.728;2023-10-31T08:07:19;5.63;;;1.70;;
71622;SDS011;59473;53.214;5.728;2023-10-31T08:09:44;4.37;;;1.50;;
71622;SDS011;59473;53.214;5.728;2023-10-31T08:12:09;4.37;;;1.83;;
71622;SDS011;59473;53.214;5.728;2023-10-31T08:14:35;7.93;;;2.20;;
71622;SDS011;59473;53.214;5.728;2023-10-31T08:17:00;8.70;;;2.27;;
71622;SDS011;59473;53.214;5.728;2023-10-31T08:19:25;11.13;;;2.17;;
71622;SDS011;59473;53.214;5.728;2023-10-31T08:21:50;12.30;;;1.97;;
71622;SDS011;59473;53.214;5.728;2023-10-31T08:24:15;8.30;;;1.83;;
71622;SDS011;59473;53.214;5.728;2023-10-31T08:26:41;10.60;;;1.87;;
71622;SDS011;59473;53.214;5.728;2023-10-31T08:29:06;14.40;;;2.53;;
71622;SDS011;59473;53.214;5.728;2023-10-31T08:31:31;10.13;;;1.70;;
71622;SDS011;59473;53.214;5.728;2023-10-31T08:33:57;8.13;;;2.13;;
71622;SDS011;59473;53.214;5.728;2023-10-31T08:36:22;9.67;;;1.90;;
71622;SDS011;59473;53.214;5.728;2023-10-31T08:38:47;8.67;;;2.20;;
71622;SDS011;59473;53.214;5.728;2023-10-31T08:41:14;8.82;;;2.30;;
71622;SDS011;59473;53.214;5.728;2023-10-31T08:43:44;9.68;;;1.95;;
71622;SDS011;59473;53.214;5.728;2023-10-31T08:46:09;12.43;;;2.20;;
71622;SDS011;59473;53.214;5.728;2023-10-31T08:48:35;11.27;;;1.67;;
71622;SDS011;59473;53.214;5.728;2023-10-31T08:51:00;10.60;;;2.00;;
71622;SDS011;59473;53.214;5.728;2023-10-31T08:53:25;13.93;;;2.63;;
71622;SDS011;59473;53.214;5.728;2023-10-31T08:55:50;11.73;;;2.50;;
71622;SDS011;59473;53.214;5.728;2023-10-31T08:58:15;9.60;;;2.00;;
71622;SDS011;59473;53.214;5.728;2023-10-31T09:00:43;15.25;;;2.95;;
71622;SDS011;59473;53.214;5.728;2023-10-31T09:03:08;11.53;;;1.90;;
71622;SDS011;59473;53.214;5.728;2023-10-31T09:05:34;14.13;;;2.20;;
71622;SDS011;59473;53.214;5.728;2023-10-31T09:07:59;13.57;;;2.35;;
71622;SDS011;59473;53.214;5.728;2023-10-31T09:10:32;8.60;;;2.00;;
71622;SDS011;59473;53.214;5.728;2023-10-31T09:12:57;9.40;;;2.13;;
71622;SDS011;59473;53.214;5.728;2023-10-31T09:15:22;6.37;;;1.83;;
71622;SDS011;59473;53.214;5.728;2023-10-31T09:17:48;6.53;;;2.00;;
71622;SDS011;59473;53.214;5.728;2023-10-31T09:20:13;9.40;;;1.90;;
71622;SDS011;59473;53.214;5.728;2023-10-31T09:22:38;12.20;;;2.42;;
71622;SDS011;59473;53.214;5.728;2023-10-31T09:25:04;11.93;;;2.17;;
71622;SDS011;59473;53.214;5.728;2023-10-31T09:27:29;10.00;;;2.50;;
71622;SDS011;59473;53.214;5.728;2023-10-31T09:29:54;8.90;;;1.70;;
71622;SDS011;59473;53.214;5.728;2023-10-31T09:32:20;7.07;;;1.70;;
71622;SDS011;59473;53.214;5.728;2023-10-31T09:34:45;8.57;;;1.90;;
71622;SDS011;59473;53.214;5.728;2023-10-31T09:37:10;9.43;;;1.53;;
71622;SDS011;59473;53.214;5.728;2023-10-31T09:39:35;8.63;;;2.50;;
71622;SDS011;59473;53.214;5.728;2023-10-31T09:42:01;9.53;;;2.27;;
71622;SDS011;59473;53.214;5.728;2023-10-31T09:44:26;5.33;;;1.70;;
71622;SDS011;59473;53.214;5.728;2023-10-31T09:46:51;15.73;;;2.20;;
71622;SDS011;59473;53.214;5.728;2023-10-31T09:49:17;12.10;;;1.80;;
71622;SDS011;59473;53.214;5.728;2023-10-31T09:51:42;11.77;;;1.85;;
71622;SDS011;59473;53.214;5.728;2023-10-31T09:54:08;10.50;;;1.80;;
71622;SDS011;59473;53.214;5.728;2023-10-31T09:56:34;8.30;;;2.15;;
71622;SDS011;59473;53.214;5.728;2023-10-31T09:59:00;7.23;;;1.70;;
71622;SDS011;59473;53.214;5.728;2023-10-31T10:01:25;6.25;;;1.83;;
71622;SDS011;59473;53.214;5.728;2023-10-31T10:03:50;6.13;;;1.80;;
71622;SDS011;59473;53.214;5.728;2023-10-31T10:06:16;11.17;;;2.00;;
71622;SDS011;59473;53.214;5.728;2023-10-31T10:08:41;6.77;;;1.60;;
71622;SDS011;59473;53.214;5.728;2023-10-31T10:11:07;6.93;;;1.90;;
71622;SDS011;59473;53.214;5.728;2023-10-31T10:13:32;7.68;;;2.13;;
71622;SDS011;59473;53.214;5.728;2023-10-31T10:15:58;7.30;;;1.80;;
71622;SDS011;59473;53.214;5.728;2023-10-31T10:18:24;7.90;;;1.97;;
71622;SDS011;59473;53.214;5.728;2023-10-31T10:20:56;8.15;;;2.25;;
71622;SDS011;59473;53.214;5.728;2023-10-31T10:23:23;8.07;;;1.60;;
71622;SDS011;59473;53.214;5.728;2023-10-31T10:25:49;10.27;;;1.90;;
71622;SDS011;59473;53.214;5.728;2023-10-31T10:28:14;10.75;;;2.20;;
71622;SDS011;59473;53.214;5.728;2023-10-31T10:30:39;12.30;;;1.83;;
71622;SDS011;59473;53.214;5.728;2023-10-31T10:33:06;9.35;;;1.92;;
71622;SDS011;59473;53.214;5.728;2023-10-31T10:35:31;12.57;;;2.50;;
71622;SDS011;59473;53.214;5.728;2023-10-31T10:37:56;7.17;;;1.77;;
71622;SDS011;59473;53.214;5.728;2023-10-31T10:40:23;5.78;;;1.42;;
71622;SDS011;59473;53.214;5.728;2023-10-31T10:42:48;7.70;;;2.00;;
71622;SDS011;59473;53.214;5.728;2023-10-31T10:45:15;9.30;;;2.67;;
71622;SDS011;59473;53.214;5.728;2023-10-31T10:47:45;9.65;;;2.05;;
71622;SDS011;59473;53.214;5.728;2023-10-31T10:50:10;9.57;;;2.27;;
71622;SDS011;59473;53.214;5.728;2023-10-31T10:55:11;12.87;;;1.97;;
71622;SDS011;59473;53.214;5.728;2023-10-31T10:57:56;8.25;;;2.10;;
71622;SDS011;59473;53.214;5.728;2023-10-31T11:00:25;4.97;;;1.65;;
71622;SDS011;59473;53.214;5.728;2023-10-31T11:02:50;8.07;;;1.80;;
71622;SDS011;59473;53.214;5.728;2023-10-31T11:05:17;9.80;;;1.95;;
71622;SDS011;59473;53.214;5.728;2023-10-31T11:07:42;7.63;;;1.80;;
71622;SDS011;59473;53.214;5.728;2023-10-31T11:10:08;9.93;;;1.73;;
71622;SDS011;59473;53.214;5.728;2023-10-31T11:12:34;10.17;;;1.77;;
71622;SDS011;59473;53.214;5.728;2023-10-31T11:15:01;8.30;;;1.58;;
71622;SDS011;59473;53.214;5.728;2023-10-31T11:17:28;8.77;;;1.95;;
71622;SDS011;59473;53.214;5.728;2023-10-31T11:19:54;11.13;;;2.20;;
71622;SDS011;59473;53.214;5.728;2023-10-31T11:22:19;7.40;;;1.92;;
71622;SDS011;59473;53.214;5.728;2023-10-31T11:24:45;8.60;;;1.50;;
71622;SDS011;59473;53.214;5.728;2023-10-31T11:27:10;8.53;;;1.53;;
71622;SDS011;59473;53.214;5.728;2023-10-31T11:29:35;6.23;;;1.70;;
71622;SDS011;59473;53.214;5.728;2023-10-31T11:32:01;11.48;;;2.10;;
71622;SDS011;59473;53.214;5.728;2023-10-31T11:34:26;7.00;;;1.70;;
71622;SDS011;59473;53.214;5.728;2023-10-31T11:36:52;5.33;;;1.97;;
71622;SDS011;59473;53.214;5.728;2023-10-31T11:39:18;6.43;;;2.00;;
71622;SDS011;59473;53.214;5.728;2023-10-31T11:41:49;9.40;;;1.60;;
71622;SDS011;59473;53.214;5.728;2023-10-31T11:44:15;13.27;;;1.77;;
71622;SDS011;59473;53.214;5.728;2023-10-31T11:46:41;9.55;;;1.80;;
71622;SDS011;59473;53.214;5.728;2023-10-31T11:49:06;6.50;;;1.50;;
71622;SDS011;59473;53.214;5.728;2023-10-31T11:51:32;5.63;;;1.90;;
71622;SDS011;59473;53.214;5.728;2023-10-31T11:53:57;7.40;;;1.60;;
71622;SDS011;59473;53.214;5.728;2023-10-31T11:56:24;6.40;;;1.90;;
71622;SDS011;59473;53.214;5.728;2023-10-31T11:59:00;4.80;;;1.70;;
71622;SDS011;59473;53.214;5.728;2023-10-31T12:01:25;9.95;;;1.65;;
71622;SDS011;59473;53.214;5.728;2023-10-31T12:03:50;7.27;;;1.67;;
71622;SDS011;59473;53.214;5.728;2023-10-31T12:06:16;7.28;;;2.10;;
71622;SDS011;59473;53.214;5.728;2023-10-31T12:08:43;6.55;;;1.92;;
71622;SDS011;59473;53.214;5.728;2023-10-31T12:11:09;6.70;;;1.58;;
71622;SDS011;59473;53.214;5.728;2023-10-31T12:13:36;9.35;;;1.88;;
71622;SDS011;59473;53.214;5.728;2023-10-31T12:16:01;8.02;;;2.28;;
71622;SDS011;59473;53.214;5.728;2023-10-31T12:18:27;4.70;;;1.53;;
71622;SDS011;59473;53.214;5.728;2023-10-31T12:20:52;8.70;;;1.87;;
71622;SDS011;59473;53.214;5.728;2023-10-31T12:23:18;5.63;;;1.80;;
71622;SDS011;59473;53.214;5.728;2023-10-31T12:26:01;6.40;;;1.80;;
71622;SDS011;59473;53.214;5.728;2023-10-31T12:28:26;8.13;;;1.67;;
71622;SDS011;59473;53.214;5.728;2023-10-31T12:30:53;5.05;;;1.58;;
71622;SDS011;59473;53.214;5.728;2023-10-31T12:33:25;6.75;;;1.75;;
71622;SDS011;59473;53.214;5.728;2023-10-31T12:35:51;8.20;;;1.90;;
71622;SDS011;59473;53.214;5.728;2023-10-31T12:38:16;8.05;;;1.70;;
71622;SDS011;59473;53.214;5.728;2023-10-31T12:40:45;4.87;;;1.83;;
71622;SDS011;59473;53.214;5.728;2023-10-31T12:43:10;6.20;;;1.80;;
71622;SDS011;59473;53.214;5.728;2023-10-31T12:45:36;5.83;;;1.70;;
71622;SDS011;59473;53.214;5.728;2023-10-31T12:48:02;3.57;;;1.47;;
71622;SDS011;59473;53.214;5.728;2023-10-31T12:50:29;5.95;;;1.40;;
71622;SDS011;59473;53.214;5.728;2023-10-31T12:52:55;6.33;;;1.40;;
71622;SDS011;59473;53.214;5.728;2023-10-31T12:55:22;2.17;;;1.33;;
71622;SDS011;59473;53.214;5.728;2023-10-31T12:57:48;4.15;;;1.70;;
71622;SDS011;59473;53.214;5.728;2023-10-31T13:00:14;3.83;;;1.73;;
71622;SDS011;59473;53.214;5.728;2023-10-31T13:02:40;4.18;;;1.48;;
71622;SDS011;59473;53.214;5.728;2023-10-31T13:05:12;2.80;;;1.40;;
71622;SDS011;59473;53.214;5.728;2023-10-31T13:07:38;7.32;;;1.90;;
71622;SDS011;59473;53.214;5.728;2023-10-31T13:10:04;5.40;;;1.40;;
71622;SDS011;59473;53.214;5.728;2023-10-31T13:12:30;6.05;;;1.52;;
71622;SDS011;59473;53.214;5.728;2023-10-31T13:14:55;3.70;;;1.53;;
71622;SDS011;59473;53.214;5.728;2023-10-31T13:17:21;3.83;;;1.43;;
71622;SDS011;59473;53.214;5.728;2023-10-31T13:19:46;2.70;;;1.53;;
71622;SDS011;59473;53.214;5.728;2023-10-31T13:22:11;2.70;;;1.43;;
71622;SDS011;59473;53.214;5.728;2023-10-31T13:24:36;3.30;;;1.00;;
71622;SDS011;59473;53.214;5.728;2023-10-31T13:27:02;6.13;;;1.50;;
71622;SDS011;59473;53.214;5.728;2023-10-31T13:29:28;3.50;;;1.58;;
71622;SDS011;59473;53.214;5.728;2023-10-31T13:31:53;4.57;;;1.70;;
71622;SDS011;59473;53.214;5.728;2023-10-31T13:34:19;4.17;;;1.20;;
71622;SDS011;59473;53.214;5.728;2023-10-31T13:36:44;4.57;;;1.63;;
71622;SDS011;59473;53.214;5.728;2023-10-31T13:39:09;6.10;;;1.50;;
71622;SDS011;59473;53.214;5.728;2023-10-31T13:41:35;6.80;;;1.60;;
71622;SDS011;59473;53.214;5.728;2023-10-31T13:44:00;3.47;;;1.27;;
71622;SDS011;59473;53.214;5.728;2023-10-31T13:46:28;4.57;;;1.52;;
71622;SDS011;59473;53.214;5.728;2023-10-31T13:48:53;3.93;;;1.33;;
71622;SDS011;59473;53.214;5.728;2023-10-31T13:51:18;3.40;;;1.37;;
71622;SDS011;59473;53.214;5.728;2023-10-31T13:53:44;3.53;;;1.33;;
71622;SDS011;59473;53.214;5.728;2023-10-31T13:56:09;7.73;;;1.90;;
71622;SDS011;59473;53.214;5.728;2023-10-31T13:58:34;4.17;;;1.20;;
71622;SDS011;59473;53.214;5.728;2023-10-31T14:01:00;2.53;;;1.07;;
71622;SDS011;59473;53.214;5.728;2023-10-31T14:03:25;2.63;;;1.60;;
71622;SDS011;59473;53.214;5.728;2023-10-31T14:05:51;4.07;;;1.60;;
71622;SDS011;59473;53.214;5.728;2023-10-31T14:08:16;4.80;;;1.60;;
71622;SDS011;59473;53.214;5.728;2023-10-31T14:10:41;2.72;;;1.20;;
71622;SDS011;59473;53.214;5.728;2023-10-31T14:13:10;5.93;;;1.47;;
71622;SDS011;59473;53.214;5.728;2023-10-31T14:15:35;2.50;;;1.13;;
71622;SDS011;59473;53.214;5.728;2023-10-31T14:18:00;2.93;;;1.10;;
71622;SDS011;59473;53.214;5.728;2023-10-31T14:20:25;4.20;;;1.50;;
71622;SDS011;59473;53.214;5.728;2023-10-31T14:22:51;5.03;;;1.70;;
71622;SDS011;59473;53.214;5.728;2023-10-31T14:25:16;6.77;;;1.60;;
71622;SDS011;59473;53.214;5.728;2023-10-31T14:27:42;4.60;;;1.52;;
71622;SDS011;59473;53.214;5.728;2023-10-31T14:30:08;5.15;;;2.17;;
71622;SDS011;59473;53.214;5.728;2023-10-31T14:32:34;8.67;;;1.87;;
71622;SDS011;59473;53.214;5.728;2023-10-31T14:34:59;5.68;;;1.95;;